Aracuai, Brazil
Current Conditions -  °F | °C
As of 6:00 PM on Wednesday 26 Nov 2014 (Local Time) from SBMK Reporting Station
Broken Clouds Broken Clouds  
Wind Chill: 73°   Ceiling: 7000
Heat Index: 73°   Visibility: 6mi
Dew Point: 66°   Wind: 5mph
Humidity: 78%   Direction: 300°WNW
Pressure: 29.91"   Gusts: NA
Location:  16.86°S, 42.07°W
Report Text: SBMK 262000Z 30004KT 240V340 9999 FEW040 BKN070 BKN100 23/19 Q1013
Loading
Personal Weather Stations






























Interactive Weather Map New forecast layout! Learn more

10-Day Weather Forecast

Advertisements
Track Severe Weather on mobile